KMTN

Martin State Airport

Baltimore, Maryland, USA
METAR KMTN 172050Z 27018G29KT 10SM SCT070 19/02 A3001
Observed Flight Rules
Oct-17 @ 20:50 UTC (11 minutes ago) Visual Flight Rules
Wind Visibility Clouds
270° at 18 knots
 Gusting to 29 knots
10 miles
  • Scattered at 7,000' AGL
Temperatures Readings
Current 19°C / 66°F
Dewpoint 2°C / 36°F
Humidity 32%
Altimeter 30.01" Hg
Pressure 1016 hPa
Elevation 7
METAR KMTN 172050Z 27018G29KT 10SM SCT070 19/02 A3001
Observed Flight Rules
Oct-17 @ 20:50 UTC
(11 minutes ago)
VFR
Wind Visibility
270° at 18 knots
 Gusting to 29 knots
10 miles
Clouds
  • Scattered at 7,000' AGL
Temperature Dewpoint
19°C / 66°F 2°C / 36°F
Humidity Altimeter Pressure
32% 30.01" Hg 1016 hPa